createdAt,value
2022-11-20T00:00:55.152Z,35.67
2022-11-20T00:03:22.254Z,39.95
2022-11-20T00:05:49.079Z,40.58
2022-11-20T00:08:15.878Z,41.47
2022-11-20T00:10:50.254Z,34.58
2022-11-20T00:13:17.062Z,37.95
2022-11-20T00:15:43.821Z,34.92
2022-11-20T00:18:10.560Z,41.33
2022-11-20T00:20:37.296Z,39.13
2022-11-20T00:23:04.145Z,33.10
2022-11-20T00:25:31.600Z,41.05
2022-11-20T00:27:59.374Z,59.05
2022-11-20T00:30:26.090Z,62.47
2022-11-20T00:32:52.899Z,57.53
2022-11-20T00:35:19.647Z,61.90
2022-11-20T00:37:46.427Z,62.10
2022-11-20T00:40:13.689Z,61.00
2022-11-20T00:42:40.883Z,64.38
2022-11-20T00:45:08.119Z,65.63
2022-11-20T00:47:34.910Z,67.28
2022-11-20T00:50:02.687Z,67.30
2022-11-20T00:52:29.979Z,57.10
2022-11-20T00:54:56.735Z,61.15
2022-11-20T00:57:23.552Z,56.80
2022-11-20T00:59:50.408Z,56.92
2022-11-20T01:02:17.509Z,48.00
2022-11-20T01:04:44.470Z,48.17
2022-11-20T01:07:11.388Z,44.13
2022-11-20T01:09:38.204Z,48.03
2022-11-20T01:12:05.140Z,44.30
2022-11-20T01:14:31.974Z,40.13
2022-11-20T01:16:58.780Z,36.92
2022-11-20T01:19:25.911Z,41.03
2022-11-20T01:21:54.747Z,36.38
2022-11-20T01:24:22.795Z,38.15
2022-11-20T01:26:51.514Z,38.45
2022-11-20T01:29:24.429Z,36.78
2022-11-20T01:34:21.871Z,35.45
2022-11-20T01:36:49.750Z,38.30
2022-11-20T01:39:22.609Z,37.28
2022-11-20T01:42:10.575Z,37.03
2022-11-20T01:44:58.609Z,37.72
2022-11-20T01:47:43.638Z,39.55
2022-11-20T01:50:26.220Z,37.35
2022-11-20T01:52:57.814Z,34.38
2022-11-20T01:55:30.531Z,36.85
2022-11-20T01:57:57.662Z,39.30
2022-11-20T02:00:24.806Z,41.80
2022-11-20T02:02:59.695Z,41.40
2022-11-20T02:05:34.471Z,41.28
2022-11-20T02:08:01.515Z,44.60
2022-11-20T02:10:29.495Z,49.28
2022-11-20T02:13:16.306Z,50.42
2022-11-20T02:15:43.433Z,53.33
2022-11-20T02:18:12.480Z,53.85
2022-11-20T02:20:42.855Z,56.45
2022-11-20T02:23:57.167Z,52.60
2022-11-20T02:26:26.559Z,49.63
2022-11-20T02:28:53.471Z,55.13
2022-11-20T02:31:20.195Z,53.22
2022-11-20T02:33:46.959Z,52.92
2022-11-20T02:36:17.514Z,55.47
2022-11-20T02:38:45.050Z,53.95
2022-11-20T02:41:11.810Z,56.08
2022-11-20T02:43:38.548Z,53.05
2022-11-20T02:46:07.938Z,50.33
2022-11-20T02:48:36.514Z,52.63
2022-11-20T02:51:03.548Z,50.65
2022-11-20T02:53:30.332Z,55.85
2022-11-20T02:55:57.388Z,51.25
2022-11-20T02:58:24.197Z,44.03
2022-11-20T03:00:51.242Z,49.30
2022-11-20T03:03:18.159Z,47.45
2022-11-20T03:05:44.914Z,43.83
2022-11-20T03:08:11.704Z,47.78
2022-11-20T03:10:38.554Z,46.63
2022-11-20T03:13:05.378Z,48.33
2022-11-20T03:15:32.107Z,45.17
2022-11-20T03:17:58.890Z,47.00
2022-11-20T03:20:25.684Z,43.85
2022-11-20T03:22:54.573Z,45.10
2022-11-20T03:25:21.363Z,41.50
2022-11-20T03:27:48.166Z,48.45
2022-11-20T03:30:16.290Z,47.10
2022-11-20T03:32:43.293Z,47.00
2022-11-20T03:35:10.606Z,46.42
2022-11-20T03:37:37.766Z,50.25
2022-11-20T03:40:05.398Z,47.75
2022-11-20T03:42:47.439Z,48.15
2022-11-20T03:45:19.048Z,50.70
2022-11-20T03:47:46.514Z,56.53
2022-11-20T03:50:14.986Z,61.55
2022-11-20T03:52:42.200Z,62.67
2022-11-20T03:55:09.752Z,60.58
2022-11-20T03:57:36.647Z,56.78
2022-11-20T04:00:04.390Z,56.13
2022-11-20T04:02:31.367Z,53.83
2022-11-20T04:04:58.195Z,52.95
2022-11-20T04:07:25.024Z,58.10
2022-11-20T04:09:51.768Z,53.55
2022-11-20T04:12:18.561Z,55.05
2022-11-20T04:14:45.289Z,56.15
2022-11-20T04:17:12.126Z,67.13
2022-11-20T04:19:38.897Z,66.95
2022-11-20T04:22:05.621Z,69.10
2022-11-20T04:24:32.492Z,68.43
2022-11-20T04:26:59.228Z,65.75
2022-11-20T04:29:25.986Z,66.72
2022-11-20T04:31:52.778Z,69.00
2022-11-20T04:34:19.546Z,65.90
2022-11-20T04:36:46.336Z,65.70
2022-11-20T04:39:16.001Z,62.47
2022-11-20T04:41:46.096Z,61.53
2022-11-20T04:44:12.970Z,55.13
2022-11-20T04:46:43.213Z,55.22
2022-11-20T04:49:11.871Z,53.85
2022-11-20T04:51:38.784Z,55.40
2022-11-20T04:54:05.738Z,58.42
2022-11-20T04:56:32.547Z,51.83
2022-11-20T04:59:02.816Z,47.47
2022-11-20T05:01:29.843Z,56.25
2022-11-20T05:03:56.614Z,46.50
2022-11-20T05:06:23.534Z,50.13
2022-11-20T05:08:51.785Z,53.13
2022-11-20T05:11:21.420Z,52.17
2022-11-20T05:13:48.974Z,58.40
2022-11-20T05:16:21.660Z,56.28
2022-11-20T05:18:49.186Z,58.88
2022-11-20T05:21:16.717Z,45.75
2022-11-20T05:23:44.743Z,55.45
2022-11-20T05:26:20.739Z,54.17
2022-11-20T05:28:48.041Z,51.83
2022-11-20T05:31:21.947Z,52.83
2022-11-20T05:33:50.655Z,59.05
2022-11-20T05:36:17.829Z,50.67
2022-11-20T05:38:45.746Z,52.72
2022-11-20T05:41:17.532Z,49.60
2022-11-20T05:43:46.435Z,53.22
2022-11-20T05:46:16.340Z,53.17
2022-11-20T05:48:45.304Z,49.47
2022-11-20T05:51:15.470Z,49.35
2022-11-20T05:53:48.069Z,55.83
2022-11-20T05:56:17.938Z,52.10
2022-11-20T05:58:45.784Z,54.88
2022-11-20T06:01:24.645Z,51.72
2022-11-20T06:03:52.134Z,54.13
2022-11-20T06:06:20.514Z,51.92
2022-11-20T06:08:48.209Z,56.78
2022-11-20T06:11:18.499Z,54.53
2022-11-20T06:13:45.705Z,52.33
2022-11-20T06:16:14.440Z,55.30
2022-11-20T06:18:41.310Z,51.45
2022-11-20T06:21:13.624Z,53.33
2022-11-20T06:23:40.945Z,54.05
2022-11-20T06:26:10.243Z,52.58
2022-11-20T06:28:37.191Z,55.33
2022-11-20T06:31:04.987Z,55.13
2022-11-20T06:33:32.243Z,57.83
2022-11-20T06:36:04.479Z,54.83
2022-11-20T06:38:35.248Z,52.80
2022-11-20T06:41:02.048Z,50.75
2022-11-20T06:43:30.932Z,50.92
2022-11-20T06:45:59.735Z,52.88
2022-11-20T06:48:28.818Z,54.40
2022-11-20T06:50:55.836Z,54.35
2022-11-20T06:53:24.087Z,53.03
2022-11-20T06:55:52.032Z,52.50
2022-11-20T06:58:19.947Z,56.75
2022-11-20T07:00:47.332Z,50.75
2022-11-20T07:03:16.319Z,51.90
2022-11-20T07:05:43.697Z,54.00
2022-11-20T07:08:10.595Z,55.42
2022-11-20T07:10:37.421Z,49.15
2022-11-20T07:13:04.293Z,53.58
2022-11-20T07:15:31.660Z,52.85
2022-11-20T07:18:01.048Z,50.33
2022-11-20T07:20:29.179Z,48.63
2022-11-20T07:22:59.433Z,52.53
2022-11-20T07:25:27.683Z,61.72
2022-11-20T07:27:57.938Z,52.30
2022-11-20T07:30:24.855Z,56.60
2022-11-20T07:32:56.385Z,55.40
2022-11-20T07:35:24.768Z,58.45
2022-11-20T07:37:51.810Z,56.22
2022-11-20T07:40:19.677Z,61.15
2022-11-20T07:42:55.189Z,60.03
2022-11-20T07:45:23.574Z,52.03
2022-11-20T07:47:52.572Z,55.72
2022-11-20T07:50:20.658Z,49.58
2022-11-20T07:52:47.485Z,59.40
2022-11-20T07:55:14.697Z,51.38
2022-11-20T07:57:41.968Z,48.50
2022-11-20T08:00:10.917Z,48.35
2022-11-20T08:02:41.456Z,47.05
2022-11-20T08:05:12.342Z,46.50
2022-11-20T08:07:40.470Z,46.72
2022-11-20T08:10:08.508Z,46.53
2022-11-20T08:12:54.105Z,50.65
2022-11-20T08:15:21.080Z,52.20
2022-11-20T08:18:08.444Z,48.63
2022-11-20T08:20:36.535Z,46.45
2022-11-20T08:23:06.629Z,47.00
2022-11-20T08:25:34.962Z,50.70
2022-11-20T08:28:15.681Z,49.50
2022-11-20T08:30:47.054Z,48.90
2022-11-20T08:33:13.863Z,47.60
2022-11-20T08:35:42.147Z,49.95
2022-11-20T08:38:09.720Z,49.35
2022-11-20T08:40:36.571Z,46.00
2022-11-20T08:43:03.528Z,43.92
2022-11-20T08:45:34.104Z,41.88
2022-11-20T08:48:03.637Z,40.88
2022-11-20T08:50:33.605Z,45.65
2022-11-20T08:53:07.801Z,44.22
2022-11-20T08:55:36.814Z,45.45
2022-11-20T08:58:07.571Z,45.38
2022-11-20T09:00:35.386Z,44.92
2022-11-20T09:03:03.046Z,51.97
2022-11-20T09:05:32.716Z,46.78
2022-11-20T09:08:01.939Z,51.50
2022-11-20T09:10:30.917Z,49.53
2022-11-20T09:12:59.019Z,49.88
2022-11-20T09:15:26.987Z,52.08
2022-11-20T09:18:05.700Z,49.17
2022-11-20T09:20:32.838Z,51.17
2022-11-20T09:23:00.229Z,51.70
2022-11-20T09:25:28.018Z,46.15
2022-11-20T09:28:00.021Z,45.80
2022-11-20T09:30:27.467Z,45.78
2022-11-20T09:32:54.887Z,49.20
2022-11-20T09:35:21.671Z,53.22
2022-11-20T09:37:50.004Z,48.70
2022-11-20T09:40:26.539Z,46.35
2022-11-20T09:43:44.130Z,50.83
2022-11-20T09:46:39.336Z,48.70
2022-11-20T09:49:15.384Z,49.83
2022-11-20T09:51:58.257Z,50.90
2022-11-20T09:54:32.798Z,48.92
2022-11-20T09:57:06.745Z,49.10
2022-11-20T09:59:51.496Z,46.40
2022-11-20T10:02:46.637Z,48.97
2022-11-20T10:05:38.228Z,44.30
2022-11-20T10:08:32.938Z,45.33
2022-11-20T10:11:15.437Z,53.35
2022-11-20T10:13:53.653Z,47.10
2022-11-20T10:16:40.555Z,51.45
2022-11-20T10:19:38.837Z,48.78
2022-11-20T10:22:26.479Z,46.70
2022-11-20T10:25:04.953Z,48.88
2022-11-20T10:27:40.984Z,46.30
2022-11-20T10:30:15.171Z,47.58
2022-11-20T10:32:44.948Z,50.00
2022-11-20T10:35:35.558Z,46.92
2022-11-20T10:38:06.522Z,59.05
2022-11-20T10:40:41.099Z,45.40
2022-11-20T10:43:17.319Z,43.63
2022-11-20T10:46:06.309Z,51.00
2022-11-20T10:48:33.546Z,45.35
2022-11-20T10:51:18.890Z,46.95
2022-11-20T10:54:13.855Z,53.22
2022-11-20T10:56:48.346Z,48.47
2022-11-20T11:00:10.280Z,49.17
2022-11-20T11:02:47.225Z,53.45
2022-11-20T11:05:43.964Z,51.70
2022-11-20T11:08:19.267Z,50.85
2022-11-20T11:10:54.278Z,50.03
2022-11-20T11:13:31.754Z,55.05
2022-11-20T11:15:59.530Z,55.17
2022-11-20T11:18:31.886Z,48.75
2022-11-20T11:21:01.075Z,52.70
2022-11-20T11:23:42.767Z,54.55
2022-11-20T11:26:21.818Z,55.72
2022-11-20T11:29:04.331Z,54.03
2022-11-20T11:31:35.521Z,49.55
2022-11-20T11:34:12.784Z,54.90
2022-11-20T11:36:39.743Z,51.78
2022-11-20T11:39:19.940Z,50.58
2022-11-20T11:41:48.003Z,49.65
2022-11-20T11:44:48.744Z,53.83
2022-11-20T11:47:27.998Z,50.13
2022-11-20T11:50:09.903Z,53.95
2022-11-20T11:53:10.149Z,50.13
2022-11-20T11:55:51.946Z,45.40
2022-11-20T11:58:22.305Z,50.65
2022-11-20T12:01:19.499Z,46.83
2022-11-20T12:04:05.374Z,50.28
2022-11-20T12:06:33.991Z,50.65
2022-11-20T12:09:06.536Z,51.95
2022-11-20T12:11:53.544Z,48.38
2022-11-20T12:14:44.406Z,47.00
2022-11-20T12:17:15.239Z,49.13
2022-11-20T12:19:43.196Z,48.38
2022-11-20T12:22:25.102Z,51.15
2022-11-20T12:24:52.118Z,48.70
2022-11-20T12:27:29.048Z,46.72
2022-11-20T12:30:12.103Z,51.90
2022-11-20T12:33:08.714Z,49.55
2022-11-20T12:36:17.627Z,46.78
2022-11-20T12:39:09.983Z,51.65
2022-11-20T12:42:29.664Z,49.72
2022-11-20T12:45:12.450Z,51.35
2022-11-20T12:48:41.075Z,53.90
2022-11-20T12:51:16.509Z,50.65
2022-11-20T12:53:55.199Z,51.47
2022-11-20T12:56:40.901Z,56.55
2022-11-20T13:00:05.762Z,63.35
2022-11-20T13:03:17.862Z,54.03
2022-11-20T13:05:50.573Z,53.72
2022-11-20T13:08:44.566Z,50.38
2022-11-20T13:11:25.017Z,44.00
2022-11-20T13:14:17.027Z,54.70
2022-11-20T13:17:04.745Z,56.63
2022-11-20T13:19:33.834Z,51.13
2022-11-20T13:22:00.721Z,54.67
2022-11-20T13:24:31.299Z,53.10
2022-11-20T13:27:01.930Z,49.58
2022-11-20T13:29:29.635Z,47.92
2022-11-20T13:32:14.792Z,46.28
2022-11-20T13:34:53.568Z,52.33
2022-11-20T13:37:38.670Z,44.50
2022-11-20T13:40:11.593Z,38.35
2022-11-20T13:42:53.947Z,44.25
2022-11-20T13:45:27.522Z,44.00
2022-11-20T13:47:56.371Z,38.10
2022-11-20T13:50:46.918Z,41.53
2022-11-20T13:53:35.328Z,43.80
2022-11-20T13:56:20.386Z,44.40
2022-11-20T13:59:14.883Z,39.80
2022-11-20T14:01:45.064Z,38.38
2022-11-20T14:04:21.508Z,44.78
2022-11-20T14:06:50.750Z,43.50
2022-11-20T14:09:29.332Z,47.53
2022-11-20T14:11:56.607Z,41.85
2022-11-20T14:14:26.573Z,42.97
2022-11-20T14:17:05.484Z,40.83
2022-11-20T14:19:32.573Z,45.85
2022-11-20T14:22:10.256Z,41.17
2022-11-20T14:24:37.327Z,41.78
2022-11-20T14:27:04.563Z,42.92
2022-11-20T14:29:36.464Z,41.80
2022-11-20T14:32:03.962Z,44.50
2022-11-20T14:34:33.605Z,45.28
2022-11-20T14:37:06.881Z,38.97
2022-11-20T14:42:03.268Z,42.38
2022-11-20T14:44:34.344Z,41.10
2022-11-20T14:47:05.160Z,43.78
2022-11-20T14:49:34.040Z,44.85
2022-11-20T14:52:21.480Z,47.88
2022-11-20T14:54:56.491Z,42.42
2022-11-20T14:57:26.280Z,40.78
2022-11-20T15:00:04.514Z,47.08
2022-11-20T15:02:32.334Z,50.80
2022-11-20T15:05:05.370Z,45.35
2022-11-20T15:07:35.629Z,45.60
2022-11-20T15:10:21.572Z,47.65
2022-11-20T15:12:55.681Z,43.78
2022-11-20T15:15:36.217Z,48.00
2022-11-20T15:18:03.366Z,49.40
2022-11-20T15:20:33.362Z,44.25
2022-11-20T15:23:00.538Z,48.92
2022-11-20T15:25:29.255Z,46.22
2022-11-20T15:27:59.135Z,48.92
2022-11-20T15:30:26.112Z,47.53
2022-11-20T15:32:53.092Z,44.58
2022-11-20T15:35:20.001Z,45.47
2022-11-20T15:37:46.845Z,46.10
2022-11-20T15:40:14.083Z,44.70
2022-11-20T15:43:00.798Z,47.40
2022-11-20T15:45:29.908Z,47.85
2022-11-20T15:47:56.849Z,50.95
2022-11-20T15:50:27.010Z,45.10
2022-11-20T15:52:53.767Z,50.03
2022-11-20T15:55:20.552Z,44.65
2022-11-20T15:57:47.354Z,46.90
2022-11-20T16:00:17.091Z,48.05
2022-11-20T16:02:47.526Z,52.35
2022-11-20T16:05:16.136Z,48.75
2022-11-20T16:07:42.934Z,54.10
2022-11-20T16:10:10.190Z,48.95
2022-11-20T16:12:55.781Z,51.45
2022-11-20T16:15:41.161Z,52.88
2022-11-20T16:18:10.479Z,48.72
2022-11-20T16:20:37.281Z,49.22
2022-11-20T16:23:07.817Z,49.60
2022-11-20T16:25:34.994Z,51.83
2022-11-20T16:28:01.986Z,49.58
2022-11-20T16:30:29.118Z,56.70
2022-11-20T16:32:56.100Z,52.35
2022-11-20T16:35:22.937Z,53.35
2022-11-20T16:37:49.666Z,53.80
2022-11-20T16:40:16.973Z,48.47
2022-11-20T16:42:44.363Z,52.08
2022-11-20T16:45:11.763Z,52.33
2022-11-20T16:47:39.260Z,52.42
2022-11-20T16:50:07.245Z,53.03
2022-11-20T16:52:34.884Z,55.90
2022-11-20T16:55:01.844Z,50.90
2022-11-20T16:57:31.399Z,55.72
2022-11-20T17:00:02.043Z,55.20
2022-11-20T17:04:58.195Z,55.85
2022-11-20T17:07:25.392Z,58.25
2022-11-20T17:09:52.774Z,54.72
2022-11-20T17:12:19.648Z,55.35
2022-11-20T17:14:50.655Z,56.15
2022-11-20T17:17:19.066Z,50.42
2022-11-20T17:19:48.550Z,54.42
2022-11-20T17:22:15.349Z,55.08
2022-11-20T17:24:42.205Z,55.35
2022-11-20T17:27:09.005Z,55.92
2022-11-20T17:29:41.729Z,59.85
2022-11-20T17:32:08.938Z,58.13
2022-11-20T17:34:35.929Z,54.45
2022-11-20T17:37:03.476Z,55.25
2022-11-20T17:39:30.434Z,55.15
2022-11-20T17:42:16.163Z,56.42
2022-11-20T17:44:44.696Z,56.17
2022-11-20T17:47:12.071Z,55.47
2022-11-20T17:49:39.179Z,58.97
2022-11-20T17:52:06.441Z,57.53
2022-11-20T17:54:33.553Z,53.38
2022-11-20T17:57:18.748Z,58.10
2022-11-20T17:59:45.556Z,59.88
2022-11-20T18:02:14.688Z,65.93
2022-11-20T18:04:41.760Z,59.63
2022-11-20T18:07:09.091Z,67.13
2022-11-20T18:09:36.298Z,60.83
2022-11-20T18:12:03.390Z,64.25
2022-11-20T18:14:32.931Z,62.45
2022-11-20T18:17:12.130Z,60.35
2022-11-20T18:20:14.279Z,67.60
2022-11-20T18:22:35.483Z,58.80
2022-11-20T18:25:03.226Z,61.22
2022-11-20T18:27:30.478Z,58.15
2022-11-20T18:29:57.305Z,57.30
2022-11-20T18:32:24.203Z,57.20
2022-11-20T18:34:51.387Z,63.33
2022-11-20T18:37:18.712Z,65.10
2022-11-20T18:39:45.717Z,61.72
2022-11-20T18:42:33.712Z,60.80
2022-11-20T18:45:01.511Z,62.63
2022-11-20T18:47:36.196Z,63.42
2022-11-20T18:50:04.419Z,62.55
2022-11-20T18:52:34.175Z,67.20
2022-11-20T18:55:03.187Z,66.93
2022-11-20T18:57:31.866Z,64.47
2022-11-20T19:00:08.323Z,69.55
2022-11-20T19:02:41.155Z,70.03
2022-11-20T19:05:11.868Z,70.72
2022-11-20T19:07:38.751Z,61.47
2022-11-20T19:10:06.445Z,68.95
2022-11-20T19:12:33.452Z,67.00
2022-11-20T19:15:00.280Z,68.05
2022-11-20T19:17:27.352Z,69.47
2022-11-20T19:19:55.081Z,66.88
2022-11-20T19:22:22.294Z,68.55
2022-11-20T19:24:49.499Z,65.57
2022-11-20T19:27:16.888Z,67.13
2022-11-20T19:29:43.741Z,71.30
2022-11-20T19:32:10.610Z,69.15
2022-11-20T19:34:37.599Z,64.30
2022-11-20T19:37:05.268Z,68.35
2022-11-20T19:39:32.121Z,68.20
2022-11-20T19:41:58.908Z,78.32
2022-11-20T19:44:25.750Z,67.53
2022-11-20T19:46:52.830Z,66.40
2022-11-20T19:49:19.860Z,70.85
2022-11-20T19:51:49.337Z,69.65
2022-11-20T19:54:16.875Z,72.13
2022-11-20T19:56:45.583Z,74.60
2022-11-20T19:59:13.172Z,70.90
2022-11-20T20:01:40.494Z,71.55
2022-11-20T20:04:07.549Z,64.10
2022-11-20T20:06:36.468Z,66.22
2022-11-20T20:09:10.740Z,69.35
2022-11-20T20:11:38.470Z,65.30
2022-11-20T20:14:08.807Z,65.50
2022-11-20T20:16:36.283Z,62.15
2022-11-20T20:19:04.792Z,66.53
2022-11-20T20:21:33.521Z,70.97
2022-11-20T20:24:02.959Z,65.10
2022-11-20T20:26:31.885Z,67.00
2022-11-20T20:29:01.391Z,67.57
2022-11-20T20:31:29.998Z,68.70
2022-11-20T20:33:58.014Z,62.85
2022-11-20T20:36:27.250Z,64.50
2022-11-20T20:38:56.996Z,65.25
2022-11-20T20:41:25.885Z,64.78
2022-11-20T20:44:12.329Z,68.50
2022-11-20T20:46:39.613Z,62.22
2022-11-20T20:49:07.646Z,64.65
2022-11-20T20:51:35.215Z,64.88
2022-11-20T20:54:02.303Z,66.63
2022-11-20T20:56:30.461Z,63.67
2022-11-20T20:58:58.516Z,65.55
2022-11-20T21:01:28.712Z,64.47
2022-11-20T21:03:56.483Z,72.57
2022-11-20T21:06:23.336Z,68.05
2022-11-20T21:08:50.696Z,67.90
2022-11-20T21:11:19.746Z,68.28
2022-11-20T21:13:48.326Z,72.10
2022-11-20T21:16:16.570Z,63.58
2022-11-20T21:18:43.343Z,68.25
2022-11-20T21:21:31.873Z,70.03
2022-11-20T21:23:58.727Z,71.85
2022-11-20T21:26:25.681Z,71.32
2022-11-20T21:28:52.787Z,72.32
2022-11-20T21:31:22.392Z,72.43
2022-11-20T21:33:51.052Z,72.78
2022-11-20T21:36:20.565Z,70.80
2022-11-20T21:38:47.898Z,70.97
2022-11-20T21:41:16.138Z,70.85
2022-11-20T21:43:44.295Z,69.50
2022-11-20T21:46:13.653Z,68.53
2022-11-20T21:48:41.921Z,72.28
2022-11-20T21:51:10.227Z,71.30
2022-11-20T21:53:37.495Z,73.65
2022-11-20T21:56:06.116Z,73.00
2022-11-20T21:58:34.055Z,73.65
2022-11-20T22:01:07.084Z,69.35
2022-11-20T22:03:33.973Z,70.90
2022-11-20T22:06:04.162Z,69.05
2022-11-20T22:08:31.202Z,73.22
2022-11-20T22:11:06.978Z,70.60
2022-11-20T22:13:53.114Z,71.28
2022-11-20T22:16:19.994Z,77.05
2022-11-20T22:18:48.923Z,70.75
2022-11-20T22:21:17.598Z,71.30
2022-11-20T22:23:44.635Z,73.65
2022-11-20T22:26:23.512Z,75.97
2022-11-20T22:28:52.101Z,73.38
2022-11-20T22:31:21.940Z,72.95
2022-11-20T22:33:48.724Z,72.30
2022-11-20T22:36:21.029Z,68.35
2022-11-20T22:38:48.327Z,72.60
2022-11-20T22:41:30.069Z,74.10
2022-11-20T22:43:58.963Z,72.72
2022-11-20T22:46:27.810Z,69.57
2022-11-20T22:48:56.802Z,71.00
2022-11-20T22:51:25.956Z,75.00
2022-11-20T22:53:53.981Z,73.32
2022-11-20T22:56:21.230Z,70.05
2022-11-20T22:58:50.808Z,70.97
2022-11-20T23:01:26.536Z,70.28
2022-11-20T23:03:56.785Z,69.38
2022-11-20T23:06:24.181Z,70.63
2022-11-20T23:08:51.872Z,66.97
2022-11-20T23:11:27.572Z,76.00
2022-11-20T23:13:59.980Z,73.45
2022-11-20T23:16:29.195Z,68.07
2022-11-20T23:18:58.185Z,74.97
2022-11-20T23:21:25.398Z,67.10
2022-11-20T23:23:55.087Z,71.55
2022-11-20T23:26:24.310Z,73.57
2022-11-20T23:28:52.898Z,72.10
2022-11-20T23:31:19.771Z,71.75
2022-11-20T23:33:47.257Z,71.13
2022-11-20T23:36:14.400Z,69.10
2022-11-20T23:38:41.406Z,65.13
2022-11-20T23:41:08.608Z,70.82
2022-11-20T23:43:42.176Z,69.90
2022-11-20T23:46:13.709Z,69.43
2022-11-20T23:48:43.440Z,68.05
2022-11-20T23:51:10.480Z,68.15
2022-11-20T23:53:37.326Z,65.60
2022-11-20T23:56:05.494Z,70.25
2022-11-20T23:58:37.444Z,65.25
